sensor_id;sensor_type;location;lat;lon;timestamp;P1;durP1;ratioP1;P2;durP2;ratioP2
34453;SDS011;60061;52.080;5.312;2022-09-30T00:00:25;1.6;;;1.4;;
34453;SDS011;60061;52.080;5.312;2022-09-30T00:03:37;1.8;;;1.4;;
34453;SDS011;60061;52.080;5.312;2022-09-30T00:05:14;1.8;;;1.4;;
34453;SDS011;60061;52.080;5.312;2022-09-30T00:06:51;1.5;;;1.2;;
34453;SDS011;60061;52.080;5.312;2022-09-30T00:10:06;5.5;;;1.6;;
34453;SDS011;60061;52.080;5.312;2022-09-30T00:11:44;3.6;;;1.4;;
34453;SDS011;60061;52.080;5.312;2022-09-30T00:13:21;3.5;;;1.5;;
34453;SDS011;60061;52.080;5.312;2022-09-30T00:14:58;3.0;;;1.6;;
34453;SDS011;60061;52.080;5.312;2022-09-30T00:18:12;3.5;;;1.8;;
34453;SDS011;60061;52.080;5.312;2022-09-30T00:19:48;3.1;;;1.7;;
34453;SDS011;60061;52.080;5.312;2022-09-30T00:21:24;3.6;;;1.8;;
34453;SDS011;60061;52.080;5.312;2022-09-30T00:24:38;4.3;;;1.5;;
34453;SDS011;60061;52.080;5.312;2022-09-30T00:26:15;2.6;;;1.4;;
34453;SDS011;60061;52.080;5.312;2022-09-30T00:27:54;3.1;;;1.5;;
34453;SDS011;60061;52.080;5.312;2022-09-30T00:31:08;2.1;;;1.5;;
34453;SDS011;60061;52.080;5.312;2022-09-30T00:32:47;1.9;;;1.7;;
34453;SDS011;60061;52.080;5.312;2022-09-30T00:34:23;2.21;;;1.8;;
34453;SDS011;60061;52.080;5.312;2022-09-30T00:36:00;4.3;;;2.0;;
34453;SDS011;60061;52.080;5.312;2022-09-30T00:39:14;2.31;;;1.9;;
34453;SDS011;60061;52.080;5.312;2022-09-30T00:40:53;2.8;;;1.6;;
34453;SDS011;60061;52.080;5.312;2022-09-30T00:42:30;3.3;;;1.8;;
34453;SDS011;60061;52.080;5.312;2022-09-30T00:46:48;3.8;;;1.8;;
34453;SDS011;60061;52.080;5.312;2022-09-30T00:48:27;3.5;;;1.7;;
34453;SDS011;60061;52.080;5.312;2022-09-30T00:52:12;4.41;;;2.0;;
34453;SDS011;60061;52.080;5.312;2022-09-30T00:53:50;4.3;;;1.7;;
34453;SDS011;60061;52.080;5.312;2022-09-30T00:55:32;3.3;;;1.9;;
34453;SDS011;60061;52.080;5.312;2022-09-30T00:57:21;3.0;;;1.9;;
34453;SDS011;60061;52.080;5.312;2022-09-30T00:58:59;2.21;;;1.8;;
34453;SDS011;60061;52.080;5.312;2022-09-30T01:02:18;3.8;;;1.7;;
34453;SDS011;60061;52.080;5.312;2022-09-30T01:03:56;5.5;;;1.7;;
34453;SDS011;60061;52.080;5.312;2022-09-30T01:05:36;3.3;;;2.0;;
34453;SDS011;60061;52.080;5.312;2022-09-30T01:08:49;2.9;;;1.8;;
34453;SDS011;60061;52.080;5.312;2022-09-30T01:10:26;3.0;;;1.6;;
34453;SDS011;60061;52.080;5.312;2022-09-30T01:12:03;4.91;;;1.8;;
34453;SDS011;60061;52.080;5.312;2022-09-30T01:13:42;3.8;;;1.8;;
34453;SDS011;60061;52.080;5.312;2022-09-30T01:17:24;2.4;;;1.7;;
34453;SDS011;60061;52.080;5.312;2022-09-30T01:19:18;2.5;;;1.8;;
34453;SDS011;60061;52.080;5.312;2022-09-30T01:21:53;2.0;;;1.8;;
34453;SDS011;60061;52.080;5.312;2022-09-30T01:24:47;3.1;;;2.0;;
34453;SDS011;60061;52.080;5.312;2022-09-30T01:28:12;3.1;;;2.0;;
34453;SDS011;60061;52.080;5.312;2022-09-30T01:30:08;4.3;;;2.21;;
34453;SDS011;60061;52.080;5.312;2022-09-30T01:31:52;4.41;;;2.21;;
34453;SDS011;60061;52.080;5.312;2022-09-30T01:33:41;3.7;;;2.21;;
34453;SDS011;60061;52.080;5.312;2022-09-30T01:35:28;3.0;;;2.31;;
34453;SDS011;60061;52.080;5.312;2022-09-30T01:37:15;4.61;;;2.8;;
34453;SDS011;60061;52.080;5.312;2022-09-30T01:39:04;7.4;;;2.8;;
34453;SDS011;60061;52.080;5.312;2022-09-30T01:40:53;3.1;;;2.8;;
34453;SDS011;60061;52.080;5.312;2022-09-30T01:44:32;6.4;;;2.9;;
34453;SDS011;60061;52.080;5.312;2022-09-30T01:46:19;4.2;;;2.5;;
34453;SDS011;60061;52.080;5.312;2022-09-30T01:48:07;5.0;;;2.5;;
34453;SDS011;60061;52.080;5.312;2022-09-30T01:49:54;7.0;;;2.6;;
34453;SDS011;60061;52.080;5.312;2022-09-30T01:51:38;4.5;;;2.7;;
34453;SDS011;60061;52.080;5.312;2022-09-30T01:53:22;6.5;;;2.6;;
34453;SDS011;60061;52.080;5.312;2022-09-30T01:56:50;3.9;;;2.4;;
34453;SDS011;60061;52.080;5.312;2022-09-30T01:58:34;3.9;;;2.4;;
34453;SDS011;60061;52.080;5.312;2022-09-30T02:00:16;5.11;;;2.4;;
34453;SDS011;60061;52.080;5.312;2022-09-30T02:01:54;5.11;;;2.21;;
34453;SDS011;60061;52.080;5.312;2022-09-30T02:05:22;5.2;;;2.5;;
34453;SDS011;60061;52.080;5.312;2022-09-30T02:07:04;5.9;;;2.7;;
34453;SDS011;60061;52.080;5.312;2022-09-30T02:08:48;4.8;;;2.4;;
34453;SDS011;60061;52.080;5.312;2022-09-30T02:10:31;3.5;;;2.6;;
34453;SDS011;60061;52.080;5.312;2022-09-30T02:12:11;5.11;;;2.6;;
34453;SDS011;60061;52.080;5.312;2022-09-30T02:15:38;4.8;;;2.5;;
34453;SDS011;60061;52.080;5.312;2022-09-30T02:17:21;4.61;;;2.4;;
34453;SDS011;60061;52.080;5.312;2022-09-30T02:19:02;2.31;;;2.0;;
34453;SDS011;60061;52.080;5.312;2022-09-30T02:20:48;4.8;;;2.31;;
34453;SDS011;60061;52.080;5.312;2022-09-30T02:24:14;3.6;;;2.21;;
34453;SDS011;60061;52.080;5.312;2022-09-30T02:25:54;4.3;;;2.21;;
34453;SDS011;60061;52.080;5.312;2022-09-30T02:27:42;3.2;;;2.4;;
34453;SDS011;60061;52.080;5.312;2022-09-30T02:29:24;4.61;;;2.31;;
34453;SDS011;60061;52.080;5.312;2022-09-30T02:31:05;2.8;;;2.21;;
34453;SDS011;60061;52.080;5.312;2022-09-30T02:34:26;3.7;;;2.31;;
34453;SDS011;60061;52.080;5.312;2022-09-30T02:36:09;4.5;;;2.4;;
34453;SDS011;60061;52.080;5.312;2022-09-30T02:37:53;5.5;;;2.31;;
34453;SDS011;60061;52.080;5.312;2022-09-30T02:39:36;2.21;;;2.0;;
34453;SDS011;60061;52.080;5.312;2022-09-30T02:43:02;2.9;;;2.0;;
34453;SDS011;60061;52.080;5.312;2022-09-30T02:46:18;4.91;;;2.6;;
34453;SDS011;60061;52.080;5.312;2022-09-30T02:48:03;5.11;;;3.1;;
34453;SDS011;60061;52.080;5.312;2022-09-30T02:49:53;5.2;;;3.3;;
34453;SDS011;60061;52.080;5.312;2022-09-30T02:53:26;5.0;;;3.5;;
34453;SDS011;60061;52.080;5.312;2022-09-30T02:55:14;3.6;;;3.0;;
34453;SDS011;60061;52.080;5.312;2022-09-30T02:56:55;4.0;;;3.0;;
34453;SDS011;60061;52.080;5.312;2022-09-30T02:58:38;4.3;;;2.8;;
34453;SDS011;60061;52.080;5.312;2022-09-30T03:00:17;4.41;;;2.9;;
34453;SDS011;60061;52.080;5.312;2022-09-30T03:03:32;4.41;;;2.9;;
34453;SDS011;60061;52.080;5.312;2022-09-30T03:05:14;3.9;;;2.7;;
34453;SDS011;60061;52.080;5.312;2022-09-30T03:06:51;3.9;;;2.7;;
34453;SDS011;60061;52.080;5.312;2022-09-30T03:10:10;4.3;;;3.2;;
34453;SDS011;60061;52.080;5.312;2022-09-30T03:11:48;4.1;;;2.8;;
34453;SDS011;60061;52.080;5.312;2022-09-30T03:13:47;4.0;;;3.1;;
34453;SDS011;60061;52.080;5.312;2022-09-30T03:15:55;4.1;;;3.1;;
34453;SDS011;60061;52.080;5.312;2022-09-30T03:17:50;4.0;;;3.2;;
34453;SDS011;60061;52.080;5.312;2022-09-30T03:19:50;6.8;;;3.1;;
34453;SDS011;60061;52.080;5.312;2022-09-30T03:21:46;4.7;;;3.1;;
34453;SDS011;60061;52.080;5.312;2022-09-30T03:23:43;6.0;;;3.4;;
34453;SDS011;60061;52.080;5.312;2022-09-30T03:25:37;5.5;;;3.5;;
34453;SDS011;60061;52.080;5.312;2022-09-30T03:29:12;7.3;;;4.0;;
34453;SDS011;60061;52.080;5.312;2022-09-30T03:31:02;7.2;;;4.3;;
34453;SDS011;60061;52.080;5.312;2022-09-30T03:32:48;5.5;;;3.7;;
34453;SDS011;60061;52.080;5.312;2022-09-30T03:34:37;6.3;;;4.7;;
34453;SDS011;60061;52.080;5.312;2022-09-30T03:36:33;5.0;;;4.1;;
34453;SDS011;60061;52.080;5.312;2022-09-30T03:38:19;6.0;;;3.7;;
34453;SDS011;60061;52.080;5.312;2022-09-30T03:40:13;4.7;;;3.7;;
34453;SDS011;60061;52.080;5.312;2022-09-30T03:43:40;7.9;;;3.9;;
34453;SDS011;60061;52.080;5.312;2022-09-30T03:45:27;7.9;;;3.9;;
34453;SDS011;60061;52.080;5.312;2022-09-30T03:47:07;4.91;;;3.3;;
34453;SDS011;60061;52.080;5.312;2022-09-30T03:48:46;6.7;;;3.9;;
34453;SDS011;60061;52.080;5.312;2022-09-30T03:50:25;5.6;;;3.9;;
34453;SDS011;60061;52.080;5.312;2022-09-30T03:53:43;5.5;;;3.7;;
34453;SDS011;60061;52.080;5.312;2022-09-30T03:55:21;5.4;;;3.4;;
34453;SDS011;60061;52.080;5.312;2022-09-30T03:57:02;5.6;;;3.6;;
34453;SDS011;60061;52.080;5.312;2022-09-30T04:00:18;6.7;;;4.0;;
34453;SDS011;60061;52.080;5.312;2022-09-30T04:01:56;6.1;;;3.5;;
34453;SDS011;60061;52.080;5.312;2022-09-30T04:03:34;4.91;;;3.6;;
34453;SDS011;60061;52.080;5.312;2022-09-30T04:05:10;4.1;;;3.4;;
34453;SDS011;60061;52.080;5.312;2022-09-30T04:08:24;7.6;;;4.91;;
34453;SDS011;60061;52.080;5.312;2022-09-30T04:10:00;7.8;;;5.7;;
34453;SDS011;60061;52.080;5.312;2022-09-30T04:11:36;7.5;;;6.0;;
34453;SDS011;60061;52.080;5.312;2022-09-30T04:14:48;7.4;;;5.7;;
34453;SDS011;60061;52.080;5.312;2022-09-30T04:16:24;7.6;;;5.5;;
34453;SDS011;60061;52.080;5.312;2022-09-30T04:18:01;8.1;;;5.8;;
34453;SDS011;60061;52.080;5.312;2022-09-30T04:21:16;6.8;;;5.3;;
34453;SDS011;60061;52.080;5.312;2022-09-30T04:22:52;8.9;;;5.7;;
34453;SDS011;60061;52.080;5.312;2022-09-30T04:24:31;7.2;;;5.7;;
34453;SDS011;60061;52.080;5.312;2022-09-30T04:26:09;7.5;;;5.9;;
34453;SDS011;60061;52.080;5.312;2022-09-30T04:29:24;9.81;;;5.6;;
34453;SDS011;60061;52.080;5.312;2022-09-30T04:31:02;8.81;;;6.6;;
34453;SDS011;60061;52.080;5.312;2022-09-30T04:32:41;10.5;;;6.5;;
34453;SDS011;60061;52.080;5.312;2022-09-30T04:35:57;9.1;;;5.9;;
34453;SDS011;60061;52.080;5.312;2022-09-30T04:37:35;7.9;;;4.8;;
34453;SDS011;60061;52.080;5.312;2022-09-30T04:39:11;7.6;;;5.0;;
34453;SDS011;60061;52.080;5.312;2022-09-30T04:40:48;7.5;;;4.8;;
34453;SDS011;60061;52.080;5.312;2022-09-30T04:44:05;7.1;;;5.6;;
34453;SDS011;60061;52.080;5.312;2022-09-30T04:45:42;8.71;;;5.4;;
34453;SDS011;60061;52.080;5.312;2022-09-30T04:47:20;8.6;;;4.7;;
34453;SDS011;60061;52.080;5.312;2022-09-30T04:50:33;8.81;;;4.41;;
34453;SDS011;60061;52.080;5.312;2022-09-30T04:52:09;6.8;;;4.7;;
34453;SDS011;60061;52.080;5.312;2022-09-30T04:53:46;5.3;;;4.0;;
34453;SDS011;60061;52.080;5.312;2022-09-30T04:55:23;6.7;;;4.3;;
34453;SDS011;60061;52.080;5.312;2022-09-30T04:58:36;6.3;;;4.1;;
34453;SDS011;60061;52.080;5.312;2022-09-30T05:00:13;6.0;;;4.41;;
34453;SDS011;60061;52.080;5.312;2022-09-30T05:01:49;7.5;;;5.11;;
34453;SDS011;60061;52.080;5.312;2022-09-30T05:05:02;5.8;;;4.8;;
34453;SDS011;60061;52.080;5.312;2022-09-30T05:06:39;8.71;;;5.4;;
34453;SDS011;60061;52.080;5.312;2022-09-30T05:08:16;9.1;;;5.0;;
34453;SDS011;60061;52.080;5.312;2022-09-30T05:11:28;8.0;;;4.7;;
34453;SDS011;60061;52.080;5.312;2022-09-30T05:13:04;8.0;;;4.5;;
34453;SDS011;60061;52.080;5.312;2022-09-30T05:14:40;7.3;;;4.8;;
34453;SDS011;60061;52.080;5.312;2022-09-30T05:16:17;10.3;;;4.8;;
34453;SDS011;60061;52.080;5.312;2022-09-30T05:19:30;8.0;;;4.5;;
34453;SDS011;60061;52.080;5.312;2022-09-30T05:21:06;7.7;;;4.91;;
34453;SDS011;60061;52.080;5.312;2022-09-30T05:22:44;7.1;;;4.7;;
34453;SDS011;60061;52.080;5.312;2022-09-30T05:25:56;8.9;;;4.61;;
34453;SDS011;60061;52.080;5.312;2022-09-30T05:27:33;8.0;;;4.3;;
34453;SDS011;60061;52.080;5.312;2022-09-30T05:29:10;7.3;;;4.7;;
34453;SDS011;60061;52.080;5.312;2022-09-30T05:32:24;6.6;;;4.3;;
34453;SDS011;60061;52.080;5.312;2022-09-30T05:34:00;5.5;;;4.3;;
34453;SDS011;60061;52.080;5.312;2022-09-30T05:35:37;6.1;;;4.61;;
34453;SDS011;60061;52.080;5.312;2022-09-30T05:37:14;8.6;;;5.2;;
34453;SDS011;60061;52.080;5.312;2022-09-30T05:40:29;8.1;;;5.0;;
34453;SDS011;60061;52.080;5.312;2022-09-30T05:42:06;8.1;;;5.0;;
34453;SDS011;60061;52.080;5.312;2022-09-30T05:43:44;6.2;;;4.3;;
34453;SDS011;60061;52.080;5.312;2022-09-30T05:46:58;6.3;;;4.41;;
34453;SDS011;60061;52.080;5.312;2022-09-30T05:48:34;7.8;;;3.9;;
34453;SDS011;60061;52.080;5.312;2022-09-30T05:50:11;4.61;;;3.7;;
34453;SDS011;60061;52.080;5.312;2022-09-30T05:51:47;6.1;;;3.9;;
34453;SDS011;60061;52.080;5.312;2022-09-30T05:55:00;5.9;;;4.1;;
34453;SDS011;60061;52.080;5.312;2022-09-30T05:56:37;6.8;;;4.5;;
34453;SDS011;60061;52.080;5.312;2022-09-30T05:58:14;7.9;;;4.7;;
34453;SDS011;60061;52.080;5.312;2022-09-30T06:01:27;6.2;;;4.3;;
34453;SDS011;60061;52.080;5.312;2022-09-30T06:03:03;9.6;;;4.91;;
34453;SDS011;60061;52.080;5.312;2022-09-30T06:04:39;6.5;;;4.7;;
34453;SDS011;60061;52.080;5.312;2022-09-30T06:07:52;7.8;;;4.91;;
34453;SDS011;60061;52.080;5.312;2022-09-30T06:09:28;13.0;;;7.1;;
34453;SDS011;60061;52.080;5.312;2022-09-30T06:11:08;15.9;;;9.31;;
34453;SDS011;60061;52.080;5.312;2022-09-30T06:12:46;14.0;;;7.5;;
34453;SDS011;60061;52.080;5.312;2022-09-30T06:15:58;14.8;;;7.8;;
34453;SDS011;60061;52.080;5.312;2022-09-30T06:17:36;12.9;;;9.6;;
34453;SDS011;60061;52.080;5.312;2022-09-30T06:19:12;16.0;;;11.5;;
34453;SDS011;60061;52.080;5.312;2022-09-30T06:26:15;10.21;;;5.8;;
34453;SDS011;60061;52.080;5.312;2022-09-30T06:29:27;9.5;;;6.0;;
34453;SDS011;60061;52.080;5.312;2022-09-30T06:32:41;11.3;;;6.3;;
34453;SDS011;60061;52.080;5.312;2022-09-30T06:34:18;12.8;;;6.7;;
34453;SDS011;60061;52.080;5.312;2022-09-30T06:35:55;9.81;;;6.6;;
34453;SDS011;60061;52.080;5.312;2022-09-30T06:39:07;11.9;;;7.4;;
34453;SDS011;60061;52.080;5.312;2022-09-30T06:40:43;10.5;;;6.7;;
34453;SDS011;60061;52.080;5.312;2022-09-30T06:42:23;9.71;;;5.4;;
34453;SDS011;60061;52.080;5.312;2022-09-30T06:45:37;8.31;;;5.6;;
34453;SDS011;60061;52.080;5.312;2022-09-30T06:47:13;10.4;;;5.7;;
34453;SDS011;60061;52.080;5.312;2022-09-30T06:48:53;8.71;;;5.8;;
34453;SDS011;60061;52.080;5.312;2022-09-30T06:50:29;10.21;;;6.4;;
34453;SDS011;60061;52.080;5.312;2022-09-30T06:53:44;14.2;;;9.5;;
34453;SDS011;60061;52.080;5.312;2022-09-30T06:55:26;15.2;;;10.1;;
34453;SDS011;60061;52.080;5.312;2022-09-30T06:57:04;16.11;;;10.21;;
34453;SDS011;60061;52.080;5.312;2022-09-30T07:00:18;16.0;;;9.9;;
34453;SDS011;60061;52.080;5.312;2022-09-30T07:01:54;14.4;;;8.9;;
34453;SDS011;60061;52.080;5.312;2022-09-30T07:03:31;14.6;;;8.1;;
34453;SDS011;60061;52.080;5.312;2022-09-30T07:05:10;16.3;;;8.9;;
34453;SDS011;60061;52.080;5.312;2022-09-30T07:08:25;14.6;;;8.5;;
34453;SDS011;60061;52.080;5.312;2022-09-30T07:10:05;12.5;;;8.0;;
34453;SDS011;60061;52.080;5.312;2022-09-30T07:11:42;13.4;;;8.1;;
34453;SDS011;60061;52.080;5.312;2022-09-30T07:14:56;20.7;;;11.1;;
34453;SDS011;60061;52.080;5.312;2022-09-30T07:16:33;25.9;;;13.2;;
34453;SDS011;60061;52.080;5.312;2022-09-30T07:18:09;13.3;;;8.9;;
34453;SDS011;60061;52.080;5.312;2022-09-30T07:19:45;16.11;;;9.0;;
34453;SDS011;60061;52.080;5.312;2022-09-30T07:22:59;12.0;;;7.7;;
34453;SDS011;60061;52.080;5.312;2022-09-30T07:24:35;12.5;;;7.2;;
34453;SDS011;60061;52.080;5.312;2022-09-30T07:26:11;14.7;;;8.0;;
34453;SDS011;60061;52.080;5.312;2022-09-30T07:29:24;21.5;;;13.2;;
34453;SDS011;60061;52.080;5.312;2022-09-30T07:31:05;24.8;;;15.5;;
34453;SDS011;60061;52.080;5.312;2022-09-30T07:32:46;32.6;;;19.61;;
34453;SDS011;60061;52.080;5.312;2022-09-30T07:34:23;37.81;;;22.6;;
34453;SDS011;60061;52.080;5.312;2022-09-30T07:37:36;44.7;;;26.2;;
34453;SDS011;60061;52.080;5.312;2022-09-30T07:39:12;41.3;;;24.6;;
34453;SDS011;60061;52.080;5.312;2022-09-30T07:40:50;39.9;;;24.7;;
34453;SDS011;60061;52.080;5.312;2022-09-30T07:44:13;45.9;;;26.4;;
34453;SDS011;60061;52.080;5.312;2022-09-30T07:45:50;41.6;;;25.2;;
34453;SDS011;60061;52.080;5.312;2022-09-30T07:47:27;44.0;;;26.0;;
34453;SDS011;60061;52.080;5.312;2022-09-30T07:49:06;46.6;;;25.7;;
34453;SDS011;60061;52.080;5.312;2022-09-30T07:52:28;46.9;;;26.8;;
34453;SDS011;60061;52.080;5.312;2022-09-30T07:54:05;41.8;;;26.0;;
34453;SDS011;60061;52.080;5.312;2022-09-30T07:55:43;41.3;;;26.0;;
34453;SDS011;60061;52.080;5.312;2022-09-30T07:57:20;43.6;;;26.6;;
34453;SDS011;60061;52.080;5.312;2022-09-30T08:00:38;44.0;;;26.9;;
34453;SDS011;60061;52.080;5.312;2022-09-30T08:02:14;45.1;;;27.0;;
34453;SDS011;60061;52.080;5.312;2022-09-30T08:03:52;41.3;;;26.0;;
34453;SDS011;60061;52.080;5.312;2022-09-30T08:07:07;41.8;;;26.7;;
34453;SDS011;60061;52.080;5.312;2022-09-30T08:08:45;44.8;;;26.8;;
34453;SDS011;60061;52.080;5.312;2022-09-30T08:10:21;43.4;;;26.6;;
34453;SDS011;60061;52.080;5.312;2022-09-30T08:11:57;40.1;;;24.6;;
34453;SDS011;60061;52.080;5.312;2022-09-30T08:15:13;39.9;;;25.7;;
34453;SDS011;60061;52.080;5.312;2022-09-30T08:16:49;38.6;;;24.9;;
34453;SDS011;60061;52.080;5.312;2022-09-30T08:18:26;40.9;;;25.1;;
34453;SDS011;60061;52.080;5.312;2022-09-30T08:21:40;36.71;;;25.2;;
34453;SDS011;60061;52.080;5.312;2022-09-30T08:23:17;36.4;;;24.0;;
34453;SDS011;60061;52.080;5.312;2022-09-30T08:24:53;34.31;;;24.3;;
34453;SDS011;60061;52.080;5.312;2022-09-30T08:28:06;37.5;;;23.4;;
34453;SDS011;60061;52.080;5.312;2022-09-30T08:29:42;37.21;;;23.4;;
34453;SDS011;60061;52.080;5.312;2022-09-30T08:31:19;32.6;;;22.3;;
34453;SDS011;60061;52.080;5.312;2022-09-30T08:32:57;33.4;;;22.8;;
34453;SDS011;60061;52.080;5.312;2022-09-30T08:36:11;36.71;;;23.7;;
34453;SDS011;60061;52.080;5.312;2022-09-30T08:37:50;35.4;;;22.5;;
34453;SDS011;60061;52.080;5.312;2022-09-30T08:39:27;39.4;;;23.6;;
34453;SDS011;60061;52.080;5.312;2022-09-30T08:43:02;36.5;;;23.6;;
34453;SDS011;60061;52.080;5.312;2022-09-30T08:44:59;35.1;;;23.5;;
34453;SDS011;60061;52.080;5.312;2022-09-30T08:46:44;36.31;;;23.6;;
34453;SDS011;60061;52.080;5.312;2022-09-30T08:48:28;34.71;;;23.6;;
34453;SDS011;60061;52.080;5.312;2022-09-30T08:50:18;33.1;;;22.5;;
34453;SDS011;60061;52.080;5.312;2022-09-30T08:52:07;34.81;;;22.9;;
34453;SDS011;60061;52.080;5.312;2022-09-30T08:53:50;31.3;;;21.4;;
34453;SDS011;60061;52.080;5.312;2022-09-30T08:57:17;35.6;;;22.1;;
34453;SDS011;60061;52.080;5.312;2022-09-30T08:58:57;33.4;;;22.9;;
34453;SDS011;60061;52.080;5.312;2022-09-30T09:00:39;36.1;;;22.7;;
34453;SDS011;60061;52.080;5.312;2022-09-30T09:02:19;29.7;;;21.7;;
34453;SDS011;60061;52.080;5.312;2022-09-30T09:05:40;32.0;;;22.9;;
34453;SDS011;60061;52.080;5.312;2022-09-30T09:07:30;31.2;;;22.2;;
34453;SDS011;60061;52.080;5.312;2022-09-30T09:09:28;31.7;;;22.5;;
34453;SDS011;60061;52.080;5.312;2022-09-30T09:11:18;30.6;;;22.8;;
34453;SDS011;60061;52.080;5.312;2022-09-30T09:13:22;35.71;;;24.6;;
34453;SDS011;60061;52.080;5.312;2022-09-30T09:15:21;37.0;;;25.6;;
34453;SDS011;60061;52.080;5.312;2022-09-30T09:17:29;33.8;;;22.9;;
34453;SDS011;60061;52.080;5.312;2022-09-30T09:19:21;31.9;;;22.2;;
34453;SDS011;60061;52.080;5.312;2022-09-30T09:21:02;31.6;;;21.6;;
34453;SDS011;60061;52.080;5.312;2022-09-30T09:24:32;32.1;;;21.4;;
34453;SDS011;60061;52.080;5.312;2022-09-30T09:26:15;29.7;;;20.41;;
34453;SDS011;60061;52.080;5.312;2022-09-30T09:27:54;26.8;;;19.61;;
34453;SDS011;60061;52.080;5.312;2022-09-30T09:29:36;23.8;;;18.3;;
34453;SDS011;60061;52.080;5.312;2022-09-30T09:32:56;25.9;;;19.0;;
34453;SDS011;60061;52.080;5.312;2022-09-30T09:34:37;27.0;;;18.5;;
34453;SDS011;60061;52.080;5.312;2022-09-30T09:36:25;22.8;;;17.41;;
34453;SDS011;60061;52.080;5.312;2022-09-30T09:38:30;25.5;;;17.5;;
34453;SDS011;60061;52.080;5.312;2022-09-30T09:40:18;20.0;;;15.7;;
34453;SDS011;60061;52.080;5.312;2022-09-30T09:42:11;21.4;;;16.11;;
34453;SDS011;60061;52.080;5.312;2022-09-30T09:44:08;20.2;;;15.4;;
34453;SDS011;60061;52.080;5.312;2022-09-30T09:47:38;19.5;;;13.7;;
34453;SDS011;60061;52.080;5.312;2022-09-30T09:49:29;18.3;;;13.2;;
34453;SDS011;60061;52.080;5.312;2022-09-30T09:51:13;17.41;;;13.2;;
34453;SDS011;60061;52.080;5.312;2022-09-30T09:53:01;19.11;;;11.8;;
34453;SDS011;60061;52.080;5.312;2022-09-30T09:54:55;12.0;;;10.21;;
34453;SDS011;60061;52.080;5.312;2022-09-30T09:56:32;11.3;;;10.0;;
34453;SDS011;60061;52.080;5.312;2022-09-30T09:59:56;15.2;;;12.0;;
34453;SDS011;60061;52.080;5.312;2022-09-30T10:01:36;17.0;;;11.4;;
34453;SDS011;60061;52.080;5.312;2022-09-30T10:03:16;14.9;;;10.8;;
34453;SDS011;60061;52.080;5.312;2022-09-30T10:05:00;15.0;;;10.9;;
34453;SDS011;60061;52.080;5.312;2022-09-30T10:08:23;14.1;;;8.9;;
34453;SDS011;60061;52.080;5.312;2022-09-30T10:10:05;10.4;;;8.71;;
34453;SDS011;60061;52.080;5.312;2022-09-30T10:12:16;11.2;;;8.6;;
34453;SDS011;60061;52.080;5.312;2022-09-30T10:14:00;11.3;;;7.6;;
34453;SDS011;60061;52.080;5.312;2022-09-30T10:15:40;9.81;;;7.1;;
34453;SDS011;60061;52.080;5.312;2022-09-30T10:18:57;12.9;;;8.2;;
34453;SDS011;60061;52.080;5.312;2022-09-30T10:20:35;11.2;;;7.9;;
34453;SDS011;60061;52.080;5.312;2022-09-30T10:22:17;10.4;;;8.1;;
34453;SDS011;60061;52.080;5.312;2022-09-30T10:23:56;11.1;;;7.8;;
34453;SDS011;60061;52.080;5.312;2022-09-30T10:27:15;9.1;;;7.3;;
34453;SDS011;60061;52.080;5.312;2022-09-30T10:29:08;9.0;;;6.5;;
34453;SDS011;60061;52.080;5.312;2022-09-30T10:31:02;10.9;;;6.6;;
34453;SDS011;60061;52.080;5.312;2022-09-30T10:32:41;8.71;;;6.2;;
34453;SDS011;60061;52.080;5.312;2022-09-30T10:34:19;10.4;;;6.9;;
34453;SDS011;60061;52.080;5.312;2022-09-30T10:37:49;8.6;;;6.3;;
34453;SDS011;60061;52.080;5.312;2022-09-30T10:39:28;8.6;;;5.7;;
34453;SDS011;60061;52.080;5.312;2022-09-30T10:41:08;6.9;;;5.2;;
34453;SDS011;60061;52.080;5.312;2022-09-30T10:42:45;9.9;;;5.2;;
34453;SDS011;60061;52.080;5.312;2022-09-30T10:46:02;5.5;;;4.2;;
34453;SDS011;60061;52.080;5.312;2022-09-30T10:47:42;5.0;;;4.3;;
34453;SDS011;60061;52.080;5.312;2022-09-30T10:49:23;5.3;;;4.0;;
34453;SDS011;60061;52.080;5.312;2022-09-30T10:51:03;4.8;;;3.9;;
34453;SDS011;60061;52.080;5.312;2022-09-30T10:54:45;4.8;;;3.4;;
34453;SDS011;60061;52.080;5.312;2022-09-30T10:56:34;5.6;;;3.5;;
34453;SDS011;60061;52.080;5.312;2022-09-30T10:58:22;6.1;;;3.8;;
34453;SDS011;60061;52.080;5.312;2022-09-30T11:00:06;5.8;;;3.6;;
34453;SDS011;60061;52.080;5.312;2022-09-30T11:01:51;5.3;;;3.3;;
34453;SDS011;60061;52.080;5.312;2022-09-30T11:03:33;4.61;;;3.5;;
34453;SDS011;60061;52.080;5.312;2022-09-30T11:06:59;3.9;;;3.3;;
34453;SDS011;60061;52.080;5.312;2022-09-30T11:08:47;3.9;;;2.9;;
34453;SDS011;60061;52.080;5.312;2022-09-30T11:10:32;4.0;;;2.6;;
34453;SDS011;60061;52.080;5.312;2022-09-30T11:12:19;3.9;;;3.0;;
34453;SDS011;60061;52.080;5.312;2022-09-30T11:14:05;3.2;;;2.5;;
34453;SDS011;60061;52.080;5.312;2022-09-30T11:17:41;2.9;;;2.5;;
34453;SDS011;60061;52.080;5.312;2022-09-30T11:19:29;4.5;;;2.5;;
34453;SDS011;60061;52.080;5.312;2022-09-30T11:21:11;2.9;;;2.5;;
34453;SDS011;60061;52.080;5.312;2022-09-30T11:22:55;3.5;;;2.9;;
34453;SDS011;60061;52.080;5.312;2022-09-30T11:24:38;4.7;;;2.8;;
34453;SDS011;60061;52.080;5.312;2022-09-30T11:28:14;6.2;;;3.0;;
34453;SDS011;60061;52.080;5.312;2022-09-30T11:30:07;4.61;;;2.6;;
34453;SDS011;60061;52.080;5.312;2022-09-30T11:31:49;4.5;;;3.2;;
34453;SDS011;60061;52.080;5.312;2022-09-30T11:33:38;4.41;;;3.2;;
34453;SDS011;60061;52.080;5.312;2022-09-30T11:35:35;4.41;;;3.4;;
34453;SDS011;60061;52.080;5.312;2022-09-30T11:37:22;3.4;;;3.1;;
34453;SDS011;60061;52.080;5.312;2022-09-30T11:39:39;3.3;;;3.0;;
34453;SDS011;60061;52.080;5.312;2022-09-30T11:42:54;6.0;;;3.6;;
34453;SDS011;60061;52.080;5.312;2022-09-30T11:44:41;3.8;;;3.3;;
34453;SDS011;60061;52.080;5.312;2022-09-30T11:46:24;4.91;;;3.5;;
34453;SDS011;60061;52.080;5.312;2022-09-30T11:48:16;3.8;;;2.9;;
34453;SDS011;60061;52.080;5.312;2022-09-30T11:50:25;3.3;;;3.0;;
34453;SDS011;60061;52.080;5.312;2022-09-30T11:52:17;4.41;;;3.4;;
34453;SDS011;60061;52.080;5.312;2022-09-30T11:54:06;5.3;;;3.7;;
34453;SDS011;60061;52.080;5.312;2022-09-30T11:56:02;3.9;;;3.2;;
34453;SDS011;60061;52.080;5.312;2022-09-30T11:59:38;5.6;;;3.5;;
34453;SDS011;60061;52.080;5.312;2022-09-30T12:01:21;3.3;;;3.0;;
34453;SDS011;60061;52.080;5.312;2022-09-30T12:03:05;3.1;;;2.8;;
34453;SDS011;60061;52.080;5.312;2022-09-30T12:04:47;3.8;;;2.5;;
34453;SDS011;60061;52.080;5.312;2022-09-30T12:06:32;2.5;;;2.21;;
34453;SDS011;60061;52.080;5.312;2022-09-30T12:09:54;3.0;;;2.21;;
34453;SDS011;60061;52.080;5.312;2022-09-30T12:11:38;7.2;;;2.7;;
34453;SDS011;60061;52.080;5.312;2022-09-30T12:13:22;5.8;;;2.6;;
34453;SDS011;60061;52.080;5.312;2022-09-30T12:15:02;3.5;;;2.7;;
34453;SDS011;60061;52.080;5.312;2022-09-30T12:18:23;3.5;;;2.4;;
34453;SDS011;60061;52.080;5.312;2022-09-30T12:20:07;5.0;;;2.4;;
34453;SDS011;60061;52.080;5.312;2022-09-30T12:21:54;3.2;;;2.0;;
34453;SDS011;60061;52.080;5.312;2022-09-30T12:23:37;3.6;;;1.8;;
34453;SDS011;60061;52.080;5.312;2022-09-30T12:25:20;4.2;;;2.0;;
34453;SDS011;60061;52.080;5.312;2022-09-30T12:31:38;3.3;;;2.6;;
34453;SDS011;60061;52.080;5.312;2022-09-30T12:33:37;3.6;;;2.8;;
34453;SDS011;60061;52.080;5.312;2022-09-30T12:38:45;3.9;;;2.5;;
34453;SDS011;60061;52.080;5.312;2022-09-30T12:41:45;4.61;;;2.8;;
34453;SDS011;60061;52.080;5.312;2022-09-30T12:46:14;4.0;;;2.4;;
34453;SDS011;60061;52.080;5.312;2022-09-30T12:49:40;3.1;;;2.7;;
34453;SDS011;60061;52.080;5.312;2022-09-30T12:51:21;5.6;;;2.7;;
34453;SDS011;60061;52.080;5.312;2022-09-30T12:53:08;6.8;;;2.9;;
34453;SDS011;60061;52.080;5.312;2022-09-30T12:54:50;6.0;;;2.8;;
34453;SDS011;60061;52.080;5.312;2022-09-30T12:56:31;4.8;;;3.1;;
34453;SDS011;60061;52.080;5.312;2022-09-30T12:59:56;5.3;;;2.8;;
34453;SDS011;60061;52.080;5.312;2022-09-30T13:01:38;3.5;;;3.2;;
34453;SDS011;60061;52.080;5.312;2022-09-30T13:03:17;4.41;;;3.0;;
34453;SDS011;60061;52.080;5.312;2022-09-30T13:04:53;6.1;;;4.1;;
34453;SDS011;60061;52.080;5.312;2022-09-30T13:07:12;6.5;;;4.0;;
34453;SDS011;60061;52.080;5.312;2022-09-30T13:10:56;5.2;;;4.1;;
34453;SDS011;60061;52.080;5.312;2022-09-30T13:12:39;5.2;;;4.41;;
34453;SDS011;60061;52.080;5.312;2022-09-30T13:14:28;7.0;;;5.11;;